Open Full Screen Window  High Contrast Mode
September 04, 2015 10:39 PM CDT
Weather Information
Wind Direction
  ---
Wind Speed
  00 kt (0 mph)
Wind Gust
  00 kt (0 mph)
Altimeter
30.10 in
Visibility
10 SM
Temperature
19° C
66° F
Dewpoint
19° C
66° F
Humidity
100%
Sky Condition
Clear
VFR

METAR KAXV 050339Z AUTO 00000KT 10SM CLR 19/19 A3010 RMK AO2

*Background is not an actual portrayal of the airport.